Time;durP1;ratioP1;P1;durP2;ratioP2;P2;SDS_P1;SDS_P2;PMS_P1;PMS_P2;Temp;Humidity;BMP_temperature;BMP_pressure;BME280_temperature;BME280_humidity;BME280_pressure;Samples;Min_cycle;Max_cycle;Signal;HPM_P1;HPM_P2
2023/05/28 00:00:34;;;;;;;1.85;0.30;;;21.20;68.20;;;;;;7407483;19;19978;-62
2023/05/28 00:03:04;;;;;;;1.67;0.40;;;21.20;68.20;;;;;;7406092;19;19926;-62
2023/05/28 00:05:33;;;;;;;1.40;0.22;;;21.20;68.30;;;;;;7407288;19;19930;-62
2023/05/28 00:08:02;;;;;;;1.98;0.50;;;21.20;68.30;;;;;;7407864;19;20055;-62
2023/05/28 00:10:31;;;;;;;1.48;0.40;;;21.10;68.30;;;;;;7406545;19;19918;-62
2023/05/28 00:13:00;;;;;;;1.95;0.43;;;21.20;68.40;;;;;;7406358;19;20298;-61
2023/05/28 00:15:32;;;;;;;1.20;0.40;;;21.10;68.40;;;;;;7407508;19;19939;-62
2023/05/28 00:18:01;;;;;;;1.90;0.60;;;21.10;68.30;;;;;;7407108;19;19981;-62
2023/05/28 00:20:30;;;;;;;2.45;0.77;;;21.10;68.40;;;;;;7406379;19;19962;-62
2023/05/28 00:23:00;;;;;;;2.55;0.70;;;21.10;68.50;;;;;;7406859;19;20340;-62
2023/05/28 00:25:29;;;;;;;3.05;0.70;;;21.10;68.60;;;;;;7407423;19;20267;-62
2023/05/28 00:27:58;;;;;;;2.50;0.52;;;21.10;68.50;;;;;;7405580;19;19919;-62
2023/05/28 00:30:27;;;;;;;1.15;0.30;;;21.10;68.50;;;;;;7404987;19;19922;-62
2023/05/28 00:32:59;;;;;;;1.50;0.52;;;21.00;68.50;;;;;;7406568;19;19919;-62
2023/05/28 00:35:28;;;;;;;1.23;0.30;;;21.00;68.50;;;;;;7407415;19;19998;-61
2023/05/28 00:37:57;;;;;;;1.77;0.30;;;21.00;68.50;;;;;;7406788;19;20336;-61
2023/05/28 00:40:27;;;;;;;1.80;0.50;;;21.00;68.50;;;;;;7406151;19;19935;-61
2023/05/28 00:42:56;;;;;;;1.85;0.43;;;21.00;68.50;;;;;;7405606;19;19978;-62
2023/05/28 00:45:25;;;;;;;2.72;0.50;;;21.00;68.60;;;;;;7404618;19;19942;-62
2023/05/28 00:47:54;;;;;;;2.30;0.40;;;21.00;68.60;;;;;;7403624;19;19926;-61
2023/05/28 00:50:28;;;;;;;1.55;0.35;;;20.90;68.50;;;;;;7403028;19;20233;-62
2023/05/28 00:52:58;;;;;;;1.25;0.40;;;20.90;68.60;;;;;;7406731;19;20322;-60
2023/05/28 00:55:27;;;;;;;1.65;0.50;;;20.90;68.60;;;;;;7405741;19;19966;-61
2023/05/28 00:58:03;;;;;;;1.42;0.38;;;20.90;68.60;;;;;;7405677;19;20376;-61
2023/05/28 01:00:32;;;;;;;2.88;0.52;;;20.90;68.70;;;;;;7405610;19;19930;-62
2023/05/28 01:03:02;;;;;;;2.15;0.50;;;20.90;68.80;;;;;;7404641;19;19923;-62
2023/05/28 01:05:34;;;;;;;2.03;0.40;;;20.90;68.70;;;;;;7403619;19;19926;-62
2023/05/28 01:08:04;;;;;;;2.38;0.70;;;20.80;68.70;;;;;;7404769;19;19923;-62
2023/05/28 01:10:34;;;;;;;1.65;0.30;;;20.90;68.80;;;;;;7405205;19;19926;-61
2023/05/28 01:13:06;;;;;;;2.17;0.30;;;20.90;68.80;;;;;;7404279;19;20404;-62
2023/05/28 01:15:37;;;;;;;1.70;0.50;;;20.80;68.80;;;;;;7405788;19;20340;-61
2023/05/28 01:18:06;;;;;;;1.63;0.30;;;20.80;68.80;;;;;;7405650;19;19930;-62
2023/05/28 01:20:38;;;;;;;1.75;0.35;;;20.80;68.80;;;;;;7404811;19;19931;-62
2023/05/28 01:23:09;;;;;;;1.85;0.47;;;20.80;68.80;;;;;;7404067;19;19918;-62
2023/05/28 01:25:41;;;;;;;1.35;0.47;;;20.80;68.80;;;;;;7404966;19;19970;-61
2023/05/28 01:28:20;;;;;;;1.38;0.43;;;20.80;68.80;;;;;;7404378;19;19931;-62
2023/05/28 01:30:49;;;;;;;1.48;0.45;;;20.70;68.80;;;;;;7405387;19;20318;-62
2023/05/28 01:33:18;;;;;;;1.75;0.45;;;20.70;68.80;;;;;;7404074;19;20009;-62
2023/05/28 01:35:47;;;;;;;1.65;0.50;;;20.70;68.90;;;;;;7405002;19;19992;-61
2023/05/28 01:38:18;;;;;;;1.73;0.22;;;20.70;68.80;;;;;;7404265;19;20217;-62
2023/05/28 01:40:51;;;;;;;1.88;0.60;;;20.70;68.90;;;;;;7404685;19;19981;-62
2023/05/28 01:43:20;;;;;;;1.77;0.40;;;20.70;69.00;;;;;;7404937;19;19978;-62
2023/05/28 01:45:50;;;;;;;1.67;0.57;;;20.70;69.00;;;;;;7403785;19;19950;-60
2023/05/28 01:48:23;;;;;;;2.22;0.43;;;20.70;69.00;;;;;;7404408;19;19928;-62
2023/05/28 01:50:54;;;;;;;1.38;0.30;;;20.60;69.00;;;;;;7404721;19;19974;-62
2023/05/28 01:53:23;;;;;;;2.15;0.40;;;20.70;69.00;;;;;;7404440;19;19918;-62
2023/05/28 01:55:55;;;;;;;1.98;0.40;;;20.60;69.00;;;;;;7402012;19;19978;-61
2023/05/28 01:58:24;;;;;;;1.63;0.43;;;20.60;69.00;;;;;;7403895;19;19918;-62
2023/05/28 02:01:06;;;;;;;1.60;0.40;;;20.60;69.00;;;;;;7404519;19;19922;-61
2023/05/28 02:03:35;;;;;;;1.75;0.70;;;20.60;69.00;;;;;;7402773;19;19926;-62
2023/05/28 02:06:04;;;;;;;2.22;0.32;;;20.60;69.10;;;;;;7402510;19;19922;-62
2023/05/28 02:08:33;;;;;;;3.00;0.30;;;20.60;69.10;;;;;;7403641;19;19915;-62
2023/05/28 02:11:05;;;;;;;2.50;0.60;;;20.60;69.20;;;;;;7403750;19;19926;-62
2023/05/28 02:13:34;;;;;;;1.50;0.52;;;20.60;69.10;;;;;;7402748;19;19982;-62
2023/05/28 02:16:03;;;;;;;2.15;0.73;;;20.60;69.20;;;;;;7403944;19;19919;-61
2023/05/28 02:18:32;;;;;;;1.67;0.30;;;20.60;69.10;;;;;;7404005;19;19970;-61
2023/05/28 02:21:01;;;;;;;2.10;0.47;;;20.50;69.10;;;;;;7403201;19;19922;-62
2023/05/28 02:23:30;;;;;;;1.85;0.40;;;20.50;69.10;;;;;;7403194;19;20338;-61
2023/05/28 02:26:00;;;;;;;1.40;0.32;;;20.50;69.10;;;;;;7402761;19;19982;-62
2023/05/28 02:28:32;;;;;;;2.65;0.55;;;20.50;69.20;;;;;;7403156;19;19962;-62
2023/05/28 02:31:01;;;;;;;2.50;0.40;;;20.50;69.20;;;;;;7403437;19;19962;-62
2023/05/28 02:33:32;;;;;;;1.40;0.40;;;20.50;69.30;;;;;;7403641;19;19942;-62
2023/05/28 02:36:01;;;;;;;1.85;0.52;;;20.50;69.20;;;;;;7402620;19;19926;-62
2023/05/28 02:38:30;;;;;;;3.05;0.40;;;20.50;69.20;;;;;;7402927;19;19978;-62
2023/05/28 02:41:00;;;;;;;1.48;0.32;;;20.50;69.20;;;;;;7400124;19;19992;-60
2023/05/28 02:43:31;;;;;;;2.42;0.43;;;20.50;69.80;;;;;;7401963;19;19936;-62
2023/05/28 02:46:00;;;;;;;1.55;0.40;;;20.40;69.20;;;;;;7400807;19;19922;-61
2023/05/28 02:48:30;;;;;;;1.95;0.75;;;20.40;69.30;;;;;;7402604;19;20169;-62
2023/05/28 02:50:59;;;;;;;1.30;0.50;;;20.40;69.30;;;;;;7401973;19;19950;-62
2023/05/28 02:53:33;;;;;;;1.88;0.43;;;20.40;69.30;;;;;;7402924;19;19926;-62
2023/05/28 02:56:02;;;;;;;1.35;0.43;;;20.40;69.20;;;;;;7402896;19;19974;-62
2023/05/28 02:58:36;;;;;;;1.75;0.60;;;20.40;69.20;;;;;;7402365;19;19918;-62
2023/05/28 03:01:06;;;;;;;1.35;0.70;;;20.40;69.30;;;;;;7402339;19;19915;-61
2023/05/28 03:03:35;;;;;;;1.73;0.40;;;20.40;69.30;;;;;;7401337;19;20343;-62
2023/05/28 03:06:04;;;;;;;2.67;0.40;;;20.40;69.30;;;;;;7402076;19;20375;-61
2023/05/28 03:08:33;;;;;;;1.55;0.40;;;20.40;69.30;;;;;;7398963;19;19923;-62
2023/05/28 03:11:02;;;;;;;1.42;0.43;;;20.40;69.30;;;;;;7401589;19;20360;-61
2023/05/28 03:13:34;;;;;;;1.85;0.50;;;20.40;69.30;;;;;;7400108;19;19923;-62
2023/05/28 03:16:03;;;;;;;1.42;0.40;;;20.40;69.30;;;;;;7401393;19;20013;-62
2023/05/28 03:18:31;;;;;;;1.75;0.40;;;20.40;69.40;;;;;;7400992;19;20412;-61
2023/05/28 03:21:01;;;;;;;2.55;0.50;;;20.40;69.30;;;;;;7401393;19;19922;-62
2023/05/28 03:23:30;;;;;;;1.63;0.43;;;20.40;69.30;;;;;;7401008;19;20360;-62
2023/05/28 03:25:59;;;;;;;1.45;0.63;;;20.40;69.30;;;;;;7399758;19;19919;-62
2023/05/28 03:28:29;;;;;;;1.73;0.40;;;20.40;69.30;;;;;;7401441;19;19978;-62
2023/05/28 03:31:01;;;;;;;;;;;20.40;69.30;;;;;;7404175;19;19927;-61
2023/05/28 03:33:30;;;;;;;1.73;0.65;;;20.30;69.30;;;;;;7401669;19;19922;-62
2023/05/28 03:35:59;;;;;;;1.27;0.30;;;20.30;69.30;;;;;;7400361;19;19936;-62
2023/05/28 03:38:28;;;;;;;2.25;0.60;;;20.30;69.30;;;;;;7401082;19;19910;-62
2023/05/28 03:40:57;;;;;;;1.27;0.30;;;20.30;69.30;;;;;;7400998;19;19919;-61
2023/05/28 03:43:27;;;;;;;1.20;0.40;;;20.30;69.30;;;;;;7400154;19;19982;-62
2023/05/28 03:45:56;;;;;;;0.82;0.22;;;20.30;69.40;;;;;;7398527;19;19985;-61
2023/05/28 03:48:27;;;;;;;1.52;0.47;;;20.30;69.30;;;;;;7399685;19;19918;-62
2023/05/28 03:50:56;;;;;;;1.27;0.50;;;20.30;69.40;;;;;;7401254;19;19974;-62
2023/05/28 03:53:26;;;;;;;1.92;0.63;;;20.30;69.40;;;;;;7399668;19;19918;-61
2023/05/28 03:55:55;;;;;;;1.50;0.50;;;20.30;69.40;;;;;;7399977;19;20344;-61
2023/05/28 03:58:24;;;;;;;;;;;20.30;69.40;;;;;;7402266;19;20011;-62
2023/05/28 04:00:53;;;;;;;1.63;0.32;;;20.30;69.40;;;;;;7400212;19;19923;-62
2023/05/28 04:03:22;;;;;;;2.58;0.45;;;20.30;69.50;;;;;;7399799;19;19966;-61
2023/05/28 04:05:54;;;;;;;1.20;0.40;;;20.30;69.40;;;;;;7398383;19;19930;-62
2023/05/28 04:08:23;;;;;;;1.58;0.32;;;20.30;69.40;;;;;;7399832;19;19926;-62
2023/05/28 04:10:55;;;;;;;1.50;0.50;;;20.30;69.40;;;;;;7399965;19;19938;-61
2023/05/28 04:13:24;;;;;;;2.17;0.63;;;20.30;69.40;;;;;;7400870;19;19921;-61
2023/05/28 04:15:53;;;;;;;2.53;0.50;;;20.30;69.40;;;;;;7400112;19;19914;-61
2023/05/28 04:18:22;;;;;;;1.30;0.40;;;20.30;69.40;;;;;;7401888;19;19918;-61
2023/05/28 04:20:55;;;;;;;2.13;0.45;;;20.30;69.40;;;;;;7406433;19;19918;-62
2023/05/28 04:23:24;;;;;;;1.58;0.75;;;20.30;69.40;;;;;;7407259;19;19978;-62
2023/05/28 04:25:53;;;;;;;1.92;0.32;;;20.30;69.40;;;;;;7404030;19;19927;-62
2023/05/28 04:28:24;;;;;;;1.25;0.38;;;20.20;69.40;;;;;;7405525;19;19932;-62
2023/05/28 04:30:53;;;;;;;2.00;0.45;;;20.30;69.40;;;;;;7407235;19;19919;-61
2023/05/28 04:33:22;;;;;;;1.58;0.32;;;20.20;69.40;;;;;;7406669;19;19959;-62
2023/05/28 04:35:54;;;;;;;1.83;0.55;;;20.20;69.40;;;;;;7406178;19;20341;-62
2023/05/28 04:38:23;;;;;;;1.50;0.32;;;20.20;69.40;;;;;;7406861;19;19918;-62
2023/05/28 04:40:53;;;;;;;2.05;0.47;;;20.20;69.40;;;;;;7405227;19;19926;-61
2023/05/28 04:43:22;;;;;;;1.75;0.40;;;20.20;69.40;;;;;;7407097;19;19962;-61
2023/05/28 04:45:53;;;;;;;2.17;0.40;;;20.20;69.40;;;;;;7403120;19;20348;-61
2023/05/28 04:48:22;;;;;;;2.30;0.80;;;20.20;69.40;;;;;;7404664;19;19922;-62
2023/05/28 04:50:53;;;;;;;3.38;0.68;;;20.20;69.40;;;;;;7405737;19;19986;-61
2023/05/28 04:53:23;;;;;;;2.58;0.52;;;20.20;69.40;;;;;;7406321;19;19942;-62
2023/05/28 04:55:52;;;;;;;1.40;0.40;;;20.20;69.40;;;;;;7405765;19;19982;-62
2023/05/28 04:58:21;;;;;;;2.45;0.43;;;20.20;69.40;;;;;;7405229;19;19950;-62
2023/05/28 05:00:51;;;;;;;4.53;0.57;;;20.20;69.40;;;;;;7405103;19;19919;-61
2023/05/28 05:03:20;;;;;;;1.92;0.43;;;20.20;69.30;;;;;;7403097;19;19919;-61
2023/05/28 05:05:49;;;;;;;1.73;0.40;;;20.30;69.40;;;;;;7402963;19;19922;-61
2023/05/28 05:08:20;;;;;;;2.40;0.40;;;20.30;69.40;;;;;;7404173;19;20344;-61
2023/05/28 05:10:49;;;;;;;1.90;0.40;;;20.30;69.40;;;;;;7404610;19;19986;-62
2023/05/28 05:13:18;;;;;;;1.33;0.32;;;20.30;69.30;;;;;;7406093;19;20364;-62
2023/05/28 05:15:48;;;;;;;2.15;0.30;;;20.30;69.30;;;;;;7403643;19;19915;-62
2023/05/28 05:18:17;;;;;;;1.88;0.50;;;20.30;69.20;;;;;;7405035;19;19929;-62
2023/05/28 05:20:46;;;;;;;1.10;0.30;;;20.30;69.20;;;;;;7405398;19;19931;-61
2023/05/28 05:23:15;;;;;;;1.50;0.40;;;20.30;69.20;;;;;;7405351;19;19922;-61
2023/05/28 05:25:47;;;;;;;1.85;0.63;;;20.30;69.20;;;;;;7401196;19;19990;-62
2023/05/28 05:28:16;;;;;;;1.85;0.38;;;20.30;69.20;;;;;;7404164;19;19926;-62
2023/05/28 05:30:45;;;;;;;1.00;0.20;;;20.30;69.20;;;;;;7404281;19;19927;-61
2023/05/28 05:33:14;;;;;;;2.03;0.43;;;20.30;69.20;;;;;;7404957;19;19946;-62
2023/05/28 05:35:43;;;;;;;2.92;0.40;;;20.30;69.20;;;;;;7403601;19;19922;-62
2023/05/28 05:38:16;;;;;;;1.75;0.50;;;20.30;69.20;;;;;;7405241;19;19926;-62
2023/05/28 05:40:48;;;;;;;1.85;0.52;;;20.30;69.20;;;;;;7403685;19;19918;-62
2023/05/28 05:43:17;;;;;;;2.17;0.47;;;20.30;69.20;;;;;;7400722;19;19929;-62
2023/05/28 05:45:46;;;;;;;2.20;0.40;;;20.30;69.10;;;;;;7399687;19;20359;-62
2023/05/28 05:48:16;;;;;;;2.30;0.35;;;20.30;69.10;;;;;;7401829;19;20348;-62
2023/05/28 05:50:54;;;;;;;1.27;0.38;;;20.30;69.10;;;;;;7404159;19;20340;-62
2023/05/28 05:53:24;;;;;;;1.60;0.43;;;20.30;69.10;;;;;;7403574;19;19981;-61
2023/05/28 05:55:55;;;;;;;;;;;20.30;69.10;;;;;;7406781;19;19922;-62
2023/05/28 05:58:24;;;;;;;2.47;0.40;;;20.30;69.10;;;;;;7403149;19;20728;-62
2023/05/28 06:00:56;;;;;;;1.00;0.30;;;20.30;69.10;;;;;;7403280;19;19907;-62
2023/05/28 06:03:27;;;;;;;1.45;0.40;;;20.30;69.00;;;;;;7404554;19;19919;-61
2023/05/28 06:05:56;;;;;;;1.45;0.40;;;20.40;69.10;;;;;;7402520;19;19935;-62
2023/05/28 06:08:26;;;;;;;1.65;0.40;;;20.40;69.10;;;;;;7402794;19;19922;-61
2023/05/28 06:10:57;;;;;;;1.65;0.55;;;20.40;69.00;;;;;;7403688;19;19922;-62
2023/05/28 06:13:26;;;;;;;1.58;0.40;;;20.40;69.10;;;;;;7403986;19;20019;-62
2023/05/28 06:15:55;;;;;;;1.95;0.50;;;20.40;69.00;;;;;;7403353;19;19919;-61
2023/05/28 06:18:24;;;;;;;3.40;0.47;;;20.40;69.00;;;;;;7401227;19;19919;-61
2023/05/28 06:20:53;;;;;;;1.83;0.40;;;20.40;68.90;;;;;;7401831;19;20466;-62
2023/05/28 06:23:22;;;;;;;1.35;0.28;;;20.40;68.90;;;;;;7402909;19;19922;-62
2023/05/28 06:25:51;;;;;;;1.30;0.43;;;20.40;68.90;;;;;;7402871;19;20021;-62
2023/05/28 06:28:23;;;;;;;1.88;0.40;;;20.40;68.90;;;;;;7403121;19;19914;-61
2023/05/28 06:30:53;;;;;;;1.30;0.40;;;20.40;68.90;;;;;;7403457;19;19934;-63
2023/05/28 06:33:22;;;;;;;1.80;0.40;;;20.50;68.90;;;;;;7403834;19;19939;-63
2023/05/28 06:35:51;;;;;;;1.50;0.30;;;20.50;68.90;;;;;;7401532;19;19970;-62
2023/05/28 06:38:21;;;;;;;1.40;0.43;;;20.50;68.90;;;;;;7401883;19;20343;-61
2023/05/28 06:40:50;;;;;;;2.10;0.55;;;20.50;68.80;;;;;;7402883;19;19911;-62
2023/05/28 06:43:19;;;;;;;1.13;0.40;;;20.50;68.80;;;;;;7401011;19;19968;-62
2023/05/28 06:45:51;;;;;;;1.77;0.40;;;20.50;68.80;;;;;;7402246;19;19933;-62
2023/05/28 06:48:21;;;;;;;2.85;0.52;;;20.50;68.80;;;;;;7402219;19;19978;-63
2023/05/28 06:50:50;;;;;;;1.63;0.43;;;20.50;68.70;;;;;;7403965;19;19914;-62
2023/05/28 06:53:19;;;;;;;1.80;0.40;;;20.60;68.80;;;;;;7402771;19;19914;-62
2023/05/28 06:55:48;;;;;;;1.45;0.80;;;20.60;68.80;;;;;;7403273;19;19919;-62
2023/05/28 06:58:17;;;;;;;2.17;0.40;;;20.50;68.70;;;;;;7402489;19;19922;-62
2023/05/28 07:00:46;;;;;;;1.20;0.43;;;20.50;68.70;;;;;;7403171;19;19915;-62
2023/05/28 07:03:18;;;;;;;2.00;0.40;;;20.60;68.80;;;;;;7402303;19;19923;-62
2023/05/28 07:05:47;;;;;;;1.45;0.45;;;20.60;68.70;;;;;;7400898;19;19926;-62
2023/05/28 07:08:16;;;;;;;1.20;0.47;;;20.60;68.70;;;;;;7401705;19;19978;-63
2023/05/28 07:10:45;;;;;;;0.80;0.35;;;20.60;68.70;;;;;;7401005;19;20346;-62
2023/05/28 07:13:15;;;;;;;1.75;0.43;;;20.60;68.70;;;;;;7399539;19;20004;-62
2023/05/28 07:15:43;;;;;;;;;;;20.60;68.70;;;;;;7403705;19;19935;-62
2023/05/28 07:18:13;;;;;;;1.50;0.52;;;20.60;68.60;;;;;;7400772;19;19935;-62
2023/05/28 07:20:44;;;;;;;;;;;20.70;68.70;;;;;;7404390;19;19918;-63
2023/05/28 07:23:13;;;;;;;2.05;0.80;;;20.70;68.60;;;;;;7399423;19;19933;-62
2023/05/28 07:25:45;;;;;;;2.55;0.50;;;20.60;68.50;;;;;;7401888;19;19926;-62
2023/05/28 07:28:14;;;;;;;1.65;0.60;;;20.70;68.50;;;;;;7400342;19;20285;-63
2023/05/28 07:30:44;;;;;;;1.55;0.40;;;20.70;68.50;;;;;;7401602;19;19929;-62
2023/05/28 07:33:13;;;;;;;1.55;0.30;;;20.60;68.50;;;;;;7400917;19;19990;-63
2023/05/28 07:35:44;;;;;;;1.55;0.35;;;20.70;68.50;;;;;;7400529;19;20347;-63
2023/05/28 07:38:14;;;;;;;1.67;0.50;;;20.70;68.50;;;;;;7400912;19;19940;-62
2023/05/28 07:40:43;;;;;;;;;;;20.70;68.50;;;;;;7403372;19;20347;-63
2023/05/28 07:43:12;;;;;;;1.83;0.60;;;20.70;68.50;;;;;;7401667;19;19918;-63
2023/05/28 07:45:41;;;;;;;1.90;0.43;;;20.70;68.40;;;;;;7400797;19;19995;-63
2023/05/28 07:48:10;;;;;;;1.85;0.40;;;20.70;68.40;;;;;;7398838;19;19974;-63
2023/05/28 07:50:45;;;;;;;1.45;0.45;;;20.70;68.40;;;;;;7398866;19;19919;-62
2023/05/28 07:53:16;;;;;;;1.98;0.30;;;20.70;68.40;;;;;;7401350;19;19915;-62
2023/05/28 07:55:45;;;;;;;1.60;0.60;;;20.70;68.40;;;;;;7407092;19;20241;-62
2023/05/28 07:58:14;;;;;;;1.38;0.40;;;20.80;68.30;;;;;;7406826;19;19922;-63
2023/05/28 08:00:44;;;;;;;1.98;0.50;;;20.80;68.30;;;;;;7404845;19;19925;-62
2023/05/28 08:03:13;;;;;;;1.90;0.32;;;20.80;68.30;;;;;;7405588;19;19922;-62
2023/05/28 08:05:45;;;;;;;2.35;0.57;;;20.80;68.30;;;;;;7405396;19;19926;-63
2023/05/28 08:08:14;;;;;;;1.33;0.38;;;20.80;68.30;;;;;;7407341;19;20325;-63
2023/05/28 08:10:43;;;;;;;1.98;0.45;;;20.80;68.20;;;;;;7406728;19;19922;-63
2023/05/28 08:13:12;;;;;;;1.60;0.30;;;20.80;68.20;;;;;;7406170;19;19923;-63
2023/05/28 08:15:41;;;;;;;1.23;0.32;;;20.80;68.20;;;;;;7407092;19;19915;-63
2023/05/28 08:18:10;;;;;;;1.60;0.22;;;20.90;68.20;;;;;;7406308;19;19927;-63
2023/05/28 08:20:39;;;;;;;1.20;0.30;;;20.90;68.10;;;;;;7407573;19;19978;-62
2023/05/28 08:23:10;;;;;;;1.63;0.50;;;20.90;68.10;;;;;;7406907;19;19986;-62
2023/05/28 08:25:41;;;;;;;2.53;0.63;;;20.90;68.00;;;;;;7406295;19;20359;-62
2023/05/28 08:28:11;;;;;;;1.40;0.40;;;20.90;68.00;;;;;;7405919;19;19931;-63
2023/05/28 08:30:40;;;;;;;1.52;0.50;;;21.00;68.00;;;;;;7406154;19;19918;-63
2023/05/28 08:33:09;;;;;;;1.50;0.43;;;21.00;68.00;;;;;;7405923;19;19935;-62
2023/05/28 08:35:38;;;;;;;1.52;0.40;;;21.00;68.00;;;;;;7406483;19;19918;-63
2023/05/28 08:38:10;;;;;;;1.52;0.52;;;21.00;67.90;;;;;;7406699;19;19922;-62
2023/05/28 08:40:43;;;;;;;1.50;0.30;;;21.00;67.90;;;;;;7405429;19;19968;-63
2023/05/28 08:43:12;;;;;;;1.20;0.50;;;21.00;67.90;;;;;;7406388;19;19974;-63
2023/05/28 08:45:41;;;;;;;1.38;0.35;;;21.00;67.90;;;;;;7405678;19;19942;-62
2023/05/28 08:48:10;;;;;;;1.40;0.32;;;21.00;67.90;;;;;;7402939;19;19918;-63
2023/05/28 08:50:43;;;;;;;1.17;0.30;;;21.00;67.90;;;;;;7406671;19;19922;-63
2023/05/28 08:53:20;;;;;;;1.45;0.40;;;21.00;67.80;;;;;;7404696;19;19922;-63
2023/05/28 08:55:49;;;;;;;1.38;0.57;;;21.10;67.90;;;;;;7403382;19;20336;-62
2023/05/28 08:58:20;;;;;;;1.92;0.43;;;21.10;67.90;;;;;;7403731;19;19923;-63
2023/05/28 09:00:50;;;;;;;1.13;0.28;;;21.10;67.80;;;;;;7405800;19;19930;-63
2023/05/28 09:03:20;;;;;;;1.65;0.75;;;21.10;67.80;;;;;;7405718;19;19939;-63
2023/05/28 09:05:49;;;;;;;1.80;0.57;;;21.10;67.80;;;;;;7400610;19;19918;-63
2023/05/28 09:08:22;;;;;;;2.00;0.45;;;21.10;67.80;;;;;;7406609;19;20423;-63
2023/05/28 09:10:51;;;;;;;1.30;0.30;;;21.10;67.80;;;;;;7406056;19;20370;-63
2023/05/28 09:13:23;;;;;;;1.30;0.38;;;21.10;67.70;;;;;;7405597;19;19978;-63
2023/05/28 09:15:53;;;;;;;1.90;0.38;;;21.10;67.70;;;;;;7406377;19;20419;-63
2023/05/28 09:18:23;;;;;;;1.52;0.50;;;21.10;67.70;;;;;;7405559;19;19929;-63
2023/05/28 09:20:52;;;;;;;1.60;0.40;;;21.20;67.70;;;;;;7401766;19;20364;-62
2023/05/28 09:23:24;;;;;;;0.93;0.25;;;21.20;67.60;;;;;;7405155;19;19925;-63
2023/05/28 09:25:53;;;;;;;2.70;0.63;;;21.20;67.70;;;;;;7405073;19;20369;-63
2023/05/28 09:28:22;;;;;;;1.05;0.20;;;21.20;67.60;;;;;;7405771;19;19971;-62
2023/05/28 09:30:55;;;;;;;1.27;0.40;;;21.20;67.60;;;;;;7404871;19;19929;-60
2023/05/28 09:33:24;;;;;;;1.23;0.50;;;21.20;67.50;;;;;;7405368;19;20352;-64
2023/05/28 09:36:01;;;;;;;1.60;0.40;;;21.20;67.50;;;;;;7404381;19;19925;-63
2023/05/28 09:38:41;;;;;;;2.15;0.60;;;21.30;67.50;;;;;;7403550;19;19992;-63
2023/05/28 09:41:21;;;;;;;1.17;0.30;;;21.30;67.50;;;;;;7404078;19;19914;-64
2023/05/28 09:43:59;;;;;;;1.92;0.50;;;21.30;67.50;;;;;;7404703;19;19947;-63
2023/05/28 09:46:32;;;;;;;1.52;0.30;;;21.30;67.50;;;;;;7403010;19;19937;-63
2023/05/28 09:49:03;;;;;;;1.50;0.55;;;21.30;67.50;;;;;;7405087;19;19919;-63
2023/05/28 09:51:33;;;;;;;1.00;0.30;;;21.40;67.50;;;;;;7404611;19;20278;-63
2023/05/28 09:54:08;;;;;;;1.35;0.30;;;21.40;67.50;;;;;;7404373;19;20391;-63
2023/05/28 09:56:39;;;;;;;1.77;0.55;;;21.40;67.50;;;;;;7404056;19;19914;-62
2023/05/28 09:59:09;;;;;;;1.42;0.30;;;21.40;67.40;;;;;;7404035;19;19919;-64
2023/05/28 10:01:43;;;;;;;1.50;0.40;;;21.40;67.40;;;;;;7404153;19;19936;-63
2023/05/28 10:04:16;;;;;;;1.50;0.50;;;21.50;67.40;;;;;;7403859;19;19938;-63
2023/05/28 10:06:46;;;;;;;2.28;0.50;;;21.50;67.40;;;;;;7403981;19;19926;-63
2023/05/28 10:09:19;;;;;;;1.40;0.32;;;21.50;67.30;;;;;;7403779;19;19943;-63
2023/05/28 10:11:57;;;;;;;1.45;0.43;;;21.50;67.30;;;;;;7404373;19;19930;-63
2023/05/28 10:14:27;;;;;;;2.05;0.40;;;21.50;67.20;;;;;;7403617;19;19922;-63
2023/05/28 10:16:56;;;;;;;1.20;0.30;;;21.60;67.90;;;;;;7403824;19;19923;-63
2023/05/28 10:19:26;;;;;;;1.67;0.60;;;21.60;67.30;;;;;;7402478;19;19922;-63
2023/05/28 10:21:55;;;;;;;2.03;0.52;;;21.60;67.20;;;;;;7402929;19;20262;-62
2023/05/28 10:24:27;;;;;;;1.40;0.50;;;21.70;67.20;;;;;;7401106;19;19980;-63
2023/05/28 10:26:56;;;;;;;1.42;0.40;;;21.70;67.20;;;;;;7401431;19;20261;-63
2023/05/28 10:29:25;;;;;;;2.38;0.45;;;21.70;67.20;;;;;;7404573;19;19982;-63
2023/05/28 10:32:02;;;;;;;1.40;0.73;;;21.70;67.10;;;;;;7404230;19;19921;-63
2023/05/28 10:34:35;;;;;;;1.50;0.50;;;21.80;67.10;;;;;;7404027;19;19943;-63
2023/05/28 10:37:05;;;;;;;1.50;0.60;;;21.80;67.10;;;;;;7404113;19;19914;-63
2023/05/28 10:39:43;;;;;;;1.75;0.40;;;21.80;67.00;;;;;;7403098;19;20009;-62
2023/05/28 10:42:16;;;;;;;1.35;0.25;;;21.90;67.00;;;;;;7401680;19;19922;-63
2023/05/28 10:45:06;;;;;;;1.50;0.45;;;21.90;67.00;;;;;;7403002;19;20269;-63
2023/05/28 10:47:40;;;;;;;1.48;0.40;;;21.90;66.90;;;;;;7400548;19;19942;-63
2023/05/28 10:50:17;;;;;;;1.77;0.57;;;22.00;66.90;;;;;;7401838;19;19948;-63
2023/05/28 10:53:04;;;;;;;1.55;0.47;;;22.00;66.80;;;;;;7402706;19;19970;-64
2023/05/28 10:55:49;;;;;;;1.40;0.43;;;22.00;66.80;;;;;;7402016;19;19945;-63
2023/05/28 10:58:27;;;;;;;1.15;0.45;;;22.00;66.80;;;;;;7401732;19;19915;-63
2023/05/28 11:01:02;;;;;;;1.20;0.20;;;22.00;66.70;;;;;;7402793;19;19990;-63
2023/05/28 11:03:42;;;;;;;2.00;0.80;;;22.10;66.70;;;;;;7402975;19;19998;-63
2023/05/28 11:06:13;;;;;;;1.00;0.40;;;22.10;66.70;;;;;;7401946;19;20336;-63
2023/05/28 11:08:47;;;;;;;1.33;0.38;;;22.10;66.60;;;;;;7399834;19;19926;-64
2023/05/28 11:11:21;;;;;;;1.25;0.30;;;22.20;66.60;;;;;;7402034;19;20361;-63
2023/05/28 11:13:51;;;;;;;1.35;0.45;;;22.10;66.50;;;;;;7401557;19;19918;-63
2023/05/28 11:16:21;;;;;;;2.13;0.52;;;22.20;66.60;;;;;;7401463;19;19922;-63
2023/05/28 11:19:02;;;;;;;1.45;0.35;;;22.30;66.50;;;;;;7402055;19;20267;-63
2023/05/28 11:21:34;;;;;;;2.30;0.50;;;22.30;66.50;;;;;;7399659;19;19981;-64
2023/05/28 11:24:04;;;;;;;1.23;0.40;;;22.30;66.50;;;;;;7401774;19;19926;-63
2023/05/28 11:26:36;;;;;;;1.58;0.35;;;22.30;66.50;;;;;;7401613;19;19938;-63
2023/05/28 11:29:06;;;;;;;1.58;0.60;;;22.30;66.40;;;;;;7404840;19;19982;-64
2023/05/28 11:31:41;;;;;;;1.38;0.47;;;22.40;66.40;;;;;;7409260;19;19933;-63
2023/05/28 11:34:10;;;;;;;1.75;0.60;;;22.40;66.40;;;;;;7408908;19;19923;-63
2023/05/28 11:36:44;;;;;;;1.40;0.50;;;22.40;66.90;;;;;;7406825;19;20265;-63
2023/05/28 11:39:13;;;;;;;1.55;0.40;;;22.40;66.30;;;;;;7407550;19;19923;-63
2023/05/28 11:41:45;;;;;;;1.90;0.50;;;22.40;66.20;;;;;;7407060;19;19989;-63
2023/05/28 11:44:23;;;;;;;1.38;0.40;;;22.50;66.30;;;;;;7408167;19;20403;-63
2023/05/28 11:46:53;;;;;;;2.13;0.47;;;22.50;66.20;;;;;;7407314;19;20006;-63
2023/05/28 11:49:22;;;;;;;1.60;0.30;;;22.50;66.20;;;;;;7405296;19;20002;-63
2023/05/28 11:51:54;;;;;;;1.13;0.32;;;22.50;66.10;;;;;;7407437;19;20013;-62
2023/05/28 11:54:24;;;;;;;1.80;0.52;;;22.60;66.20;;;;;;7407697;19;19993;-63
2023/05/28 11:56:55;;;;;;;1.33;0.65;;;22.60;66.10;;;;;;7408238;19;19927;-63
2023/05/28 11:59:26;;;;;;;2.25;0.75;;;22.60;66.10;;;;;;7406255;19;19948;-63
2023/05/28 12:01:55;;;;;;;1.48;0.47;;;22.60;66.00;;;;;;7406355;19;19985;-63
2023/05/28 12:04:26;;;;;;;1.20;0.73;;;22.70;66.00;;;;;;7407215;19;19932;-63
2023/05/28 12:06:57;;;;;;;2.20;0.30;;;22.70;66.00;;;;;;7406830;19;19919;-63
2023/05/28 12:09:26;;;;;;;1.42;0.52;;;22.70;65.90;;;;;;7405834;19;20399;-63
2023/05/28 12:12:14;;;;;;;2.15;0.40;;;22.70;65.90;;;;;;7407522;19;19966;-63
2023/05/28 12:14:42;;;;;;;;;;;22.70;65.80;;;;;;7408998;19;19926;-63
2023/05/28 12:17:13;;;;;;;1.73;0.60;;;22.80;65.90;;;;;;7407825;19;19981;-63
2023/05/28 12:19:42;;;;;;;1.50;0.30;;;22.80;65.80;;;;;;7406993;19;19922;-63
2023/05/28 12:22:18;;;;;;;1.23;0.30;;;22.80;65.70;;;;;;7406316;19;20388;-63
2023/05/28 12:24:53;;;;;;;1.83;0.43;;;22.80;65.70;;;;;;7406779;19;20686;-64
2023/05/28 12:27:25;;;;;;;1.45;0.60;;;22.90;65.70;;;;;;7405819;19;19925;-63
2023/05/28 12:29:54;;;;;;;1.17;0.45;;;22.90;65.70;;;;;;7405819;19;19924;-64
2023/05/28 12:32:23;;;;;;;1.58;0.45;;;22.90;65.70;;;;;;7406352;19;20413;-63
2023/05/28 12:34:53;;;;;;;1.20;0.30;;;22.90;65.60;;;;;;7404907;19;19926;-63
2023/05/28 12:37:23;;;;;;;1.20;0.45;;;22.90;65.60;;;;;;7406559;19;19922;-62
2023/05/28 12:39:52;;;;;;;1.65;0.43;;;23.00;65.60;;;;;;7405660;19;20194;-63
2023/05/28 12:42:24;;;;;;;;;;;23.10;65.60;;;;;;7409631;19;19907;-64
2023/05/28 12:44:53;;;;;;;1.60;0.60;;;23.10;65.50;;;;;;7405975;19;19926;-63
2023/05/28 12:47:22;;;;;;;1.15;0.50;;;23.10;66.10;;;;;;7405015;19;20297;-64
2023/05/28 12:49:51;;;;;;;1.50;0.55;;;23.20;65.50;;;;;;7403832;19;19968;-64
2023/05/28 12:52:20;;;;;;;1.38;0.40;;;23.10;65.40;;;;;;7406631;19;19923;-63
2023/05/28 12:54:50;;;;;;;1.33;0.50;;;23.20;65.40;;;;;;7406297;19;20285;-63
2023/05/28 12:57:19;;;;;;;1.85;0.57;;;23.20;65.40;;;;;;7406183;19;19933;-62
2023/05/28 12:59:50;;;;;;;1.45;0.45;;;23.20;65.30;;;;;;7405127;19;20335;-63
2023/05/28 13:02:19;;;;;;;1.35;0.45;;;23.20;65.30;;;;;;7405516;19;19922;-63
2023/05/28 13:04:48;;;;;;;1.25;0.40;;;23.30;65.30;;;;;;7405052;19;19951;-63